Cape Sakura — 7JHZ — position and weather

sailwx.info

Track history (hours):
 
Tides and Currents Weather Stations Pressure Air Temp Water Temp Dewpoint Dewpoint Depression Visibility Wind Speed Wind Dir Waves Ship Positions

Cape Sakura

Last reported at 2016-Dec-02 07:33 UTC. Time now 2016-Dec-03 21:51 UTC.
Position N 46°09' W 008°21'.

Length 292 m; draft 10.4 m.

Type: Cargo ship. MMSI: 432786000.

Date/timePositionNaut miles runAvg speedWind from/ knotsBaromVisibWave heightAir tempDewpointWater temp
2016-Dec-02 07:33N 46°09' W 008°21'9 9.4
2016-Dec-02 06:33N 46°17' W 008°13'9 9.2
2016-Dec-02 05:32N 46°25' W 008°06'10 9.4
2016-Dec-02 04:30N 46°33' W 007°58'9 9.5
2016-Dec-02 03:33N 46°41' W 007°52'12 9.6
2016-Dec-02 02:17N 46°51' W 007°42'7 9.8
2016-Dec-02 01:33N 46°57' W 007°36'11 9.5
2016-Dec-02 00:21N 47°07' W 007°27'95 9.7
2016-Dec-01 14:33N 48°27' W 006°13'1711.9
2016-Dec-01 13:07N 48°41' W 005°58'712.8
2016-Dec-01 12:33N 48°47' W 005°53'1313.4
2016-Dec-01 11:34N 48°58' W 005°40'4314.3
2016-Dec-01 08:33N 49°22' W 004°45'1313.0
2016-Dec-01 07:33N 49°29' W 004°29'2412.1
2016-Dec-01 05:33N 49°43' W 003°58'1212.1
2016-Dec-01 04:32N 49°48' W 003°41'1313.1
2016-Dec-01 03:34N 49°53' W 003°23'1414.3
2016-Dec-01 02:33N 49°57' W 003°02'1515.3
2016-Dec-01 01:33N 50°02' W 002°39'1515.0
2016-Dec-01 00:33N 50°07' W 002°17'1413.7
2016-Nov-30 23:33N 50°11' W 001°57'1212.0
2016-Nov-30 22:33N 50°13' W 001°38'1110.7
2016-Nov-30 21:33N 50°15' W 001°22'10 9.8
2016-Nov-30 20:33N 50°17' W 001°07'1010.2
2016-Nov-30 19:33N 50°20' W 000°51'1211.6
2016-Nov-30 18:33N 50°23' W 000°34'1313.1
2016-Nov-30 17:33N 50°27' W 000°14'1414.1
2016-Nov-30 16:34N 50°31' E 000°07'1414.4
2016-Nov-30 15:34N 50°35' E 000°29'1413.6
2016-Nov-30 14:33N 50°41' E 000°48'1212.4
2016-Nov-30 13:33N 50°50' E 001°02'1110.8
2016-Nov-30 12:33N 50°57' E 001°14'1111.0
2016-Nov-30 11:33N 51°04' E 001°28'10 9.8
2016-Nov-30 10:33N 51°03' E 001°44'1211.8
2016-Nov-30 09:33N 51°03' E 002°03'1111.5
2016-Nov-30 08:34N 51°03' E 002°21'0 0.5
2016-Nov-30 07:34N 51°03' E 002°20'1 0.6
2016-Nov-30 06:32N 51°03' E 002°19'0 0.0
2016-Nov-30 05:32N 51°03' E 002°19'0 0.0
2016-Nov-30 04:32N 51°03' E 002°19'0 0.0
2016-Nov-30 03:32N 51°03' E 002°19'0 0.0
2016-Nov-30 02:32N 51°03' E 002°19'0 0.0
2016-Nov-30 01:32N 51°03' E 002°19'0 0.0
2016-Nov-30 00:32N 51°03' E 002°19'0 0.0
2016-Nov-29 23:29N 51°03' E 002°19'0 0.0
2016-Nov-29 22:32N 51°03' E 002°19'0 0.0
2016-Nov-29 21:32N 51°03' E 002°19'0 0.0
2016-Nov-29 20:32N 51°03' E 002°19'0 0.0
2016-Nov-29 19:32N 51°03' E 002°19'0 0.0
2016-Nov-29 18:32N 51°03' E 002°19'0 0.0
2016-Nov-29 17:32N 51°03' E 002°19'0 0.0
2016-Nov-29 16:32N 51°03' E 002°19'0 0.0
2016-Nov-29 15:32N 51°03' E 002°19'0 0.0
2016-Nov-29 14:32N 51°03' E 002°19'0 0.0
2016-Nov-29 13:32N 51°03' E 002°19'0 0.0
2016-Nov-29 12:32N 51°03' E 002°19'0 0.0
2016-Nov-29 11:32N 51°03' E 002°19'0 0.0
2016-Nov-29 10:32N 51°03' E 002°19'0 0.0
2016-Nov-29 09:29N 51°03' E 002°19'0 0.0
2016-Nov-29 08:32N 51°03' E 002°19'0 0.0
2016-Nov-29 07:32N 51°03' E 002°19'0 0.0
2016-Nov-29 06:32N 51°03' E 002°19'0 0.0
2016-Nov-29 05:32N 51°03' E 002°19'0 0.0
2016-Nov-29 04:32N 51°03' E 002°19'0 0.0
2016-Nov-29 03:32N 51°03' E 002°19'0 0.0
2016-Nov-29 02:32N 51°03' E 002°19'0 0.0
2016-Nov-29 01:32N 51°03' E 002°19'0 0.0
2016-Nov-29 00:32N 51°03' E 002°19'0 0.0
2016-Nov-28 23:32N 51°03' E 002°19'0 0.0
2016-Nov-28 22:32N 51°03' E 002°19'0 0.0
2016-Nov-28 21:32N 51°03' E 002°19'0 0.0
2016-Nov-28 20:32N 51°03' E 002°19'0 0.0
2016-Nov-28 19:32N 51°03' E 002°19'0 0.0
2016-Nov-28 18:32N 51°03' E 002°19'0 0.0
2016-Nov-28 17:32N 51°03' E 002°19'0 0.0
2016-Nov-28 16:32N 51°03' E 002°19'0 0.0
2016-Nov-28 15:32N 51°03' E 002°19'0 0.0
2016-Nov-28 14:32N 51°03' E 002°19'0 0.0
2016-Nov-28 13:32N 51°03' E 002°19'0 0.0
2016-Nov-28 12:32N 51°03' E 002°19'0 0.0
2016-Nov-28 11:32N 51°03' E 002°19'0 0.0
2016-Nov-28 10:32N 51°03' E 002°19'0 0.0
2016-Nov-28 09:32N 51°03' E 002°19'0 0.0
2016-Nov-28 08:32N 51°03' E 002°19'0 0.0
2016-Nov-28 07:32N 51°03' E 002°19'0 0.0
2016-Nov-28 06:32N 51°03' E 002°19'0 0.0
2016-Nov-28 05:32N 51°03' E 002°19'0 0.0
2016-Nov-28 04:32N 51°03' E 002°19'0 0.0
2016-Nov-28 03:32N 51°03' E 002°19'0 0.0
2016-Nov-28 02:32N 51°03' E 002°19'0 0.0
2016-Nov-28 01:32N 51°03' E 002°19'0 0.0
2016-Nov-28 00:32N 51°03' E 002°19'0 0.0
2016-Nov-27 23:32N 51°03' E 002°19'0 0.0
2016-Nov-27 22:32N 51°03' E 002°19'0 0.0
2016-Nov-27 21:32N 51°03' E 002°19'0 0.0
2016-Nov-27 20:32N 51°03' E 002°19'0 0.0
2016-Nov-27 19:32N 51°03' E 002°19'0 0.0
2016-Nov-27 18:32N 51°03' E 002°19'0 0.0
2016-Nov-27 17:32N 51°03' E 002°19'0 0.0
2016-Nov-27 16:32N 51°03' E 002°19'0 0.0
2016-Nov-27 15:32N 51°03' E 002°19'0 0.0
2016-Nov-27 14:32N 51°03' E 002°19'0 0.0
2016-Nov-27 13:32N 51°03' E 002°19'0 0.0
2016-Nov-27 12:33N 51°03' E 002°19'0 0.0
2016-Nov-27 11:32N 51°03' E 002°19'0 0.0
2016-Nov-27 10:32N 51°03' E 002°19'0 0.0
2016-Nov-27 09:32N 51°03' E 002°19'0 0.0
2016-Nov-27 08:32N 51°03' E 002°19'0 0.0
2016-Nov-27 07:32N 51°03' E 002°19'0 0.0
2016-Nov-27 06:32N 51°03' E 002°19'0 0.0
2016-Nov-27 05:32N 51°03' E 002°19'0 0.0
2016-Nov-27 04:32N 51°03' E 002°19'0 0.0
2016-Nov-27 03:32N 51°03' E 002°19'0 0.0
2016-Nov-27 02:32N 51°03' E 002°19'0 0.0
2016-Nov-27 01:32N 51°03' E 002°19'0 0.0
2016-Nov-27 00:29N 51°03' E 002°19'0 0.0
2016-Nov-26 23:32N 51°03' E 002°19'0 0.0
2016-Nov-26 22:32N 51°03' E 002°19'0 0.0
2016-Nov-26 21:32N 51°03' E 002°19'0 0.0
2016-Nov-26 20:32N 51°03' E 002°19'0 0.0
2016-Nov-26 19:32N 51°03' E 002°19'0 0.0
2016-Nov-26 18:32N 51°03' E 002°19'0 0.0
2016-Nov-26 17:32N 51°03' E 002°19'0 0.0
2016-Nov-26 16:32N 51°03' E 002°19'0 0.0
2016-Nov-26 15:32N 51°03' E 002°19'0 0.0
2016-Nov-26 14:32N 51°03' E 002°19'0 0.0
2016-Nov-26 13:32N 51°03' E 002°19'0 0.0
2016-Nov-26 12:32N 51°03' E 002°19'0 0.0
2016-Nov-26 11:32N 51°03' E 002°19'0 0.0
2016-Nov-26 10:32N 51°03' E 002°19'0 0.0
2016-Nov-26 09:32N 51°03' E 002°19'0 0.0
2016-Nov-26 08:32N 51°03' E 002°19'0 0.0
2016-Nov-26 07:32N 51°03' E 002°19'0 0.0
2016-Nov-26 06:32N 51°03' E 002°19'0 0.0
2016-Nov-26 05:32N 51°03' E 002°19'0 0.0
2016-Nov-26 04:29N 51°03' E 002°19'0 0.0
2016-Nov-26 03:32N 51°03' E 002°19'0 0.0
2016-Nov-26 02:32N 51°03' E 002°19'0 0.0
2016-Nov-26 01:32N 51°03' E 002°19'0 0.0
2016-Nov-26 00:32N 51°03' E 002°19'0 0.0
2016-Nov-25 23:32N 51°03' E 002°19'0 0.0
2016-Nov-25 22:32N 51°03' E 002°19'0 0.0
2016-Nov-25 21:32N 51°03' E 002°19'0 0.0
2016-Nov-25 20:32N 51°03' E 002°19'0 0.0
2016-Nov-25 19:32N 51°03' E 002°19'0 0.0
2016-Nov-25 18:32N 51°03' E 002°19'0 0.0
2016-Nov-25 17:32N 51°03' E 002°19'0 0.0
2016-Nov-25 16:32N 51°03' E 002°19'0 0.0
2016-Nov-25 15:32N 51°03' E 002°19'0 0.0
2016-Nov-25 14:32N 51°03' E 002°19'0 0.0
2016-Nov-25 13:32N 51°03' E 002°19'0 0.0
2016-Nov-25 12:33N 51°03' E 002°19'1 0.8
2016-Nov-25 11:33N 51°03' E 002°21'1 1.3
2016-Nov-25 10:33N 51°04' E 002°19'8 8.3
2016-Nov-25 09:33N 51°03' E 002°06'9 9.3
2016-Nov-25 08:33N 51°02' E 001°51'1 1.2
2016-Nov-25 07:32N 51°03' E 001°49'0 0.1
2016-Nov-25 06:32N 51°03' E 001°49'0 0.0
2016-Nov-25 05:32N 51°03' E 001°49'0 0.0
2016-Nov-25 04:32N 51°03' E 001°49'0 0.0
2016-Nov-25 03:32N 51°03' E 001°49'0 0.0
2016-Nov-25 02:32N 51°03' E 001°49'0 0.0
2016-Nov-25 01:32N 51°03' E 001°49'0 0.0
2016-Nov-25 00:32N 51°03' E 001°49'0 0.0
2016-Nov-24 23:32N 51°03' E 001°49'0 0.0
2016-Nov-24 22:32N 51°03' E 001°49'0 0.1
2016-Nov-24 21:32N 51°03' E 001°49'0 0.0
2016-Nov-24 20:32N 51°03' E 001°49'0 0.1
2016-Nov-24 19:32N 51°03' E 001°49'1 0.9
2016-Nov-24 18:34N 51°02' E 001°48'7 7.3
2016-Nov-24 17:33N 51°03' E 001°59'7 7.3
2016-Nov-24 16:33N 51°01' E 002°11'0 0.1
2016-Nov-24 15:33N 51°01' E 002°10'0 0.0
2016-Nov-24 14:33N 51°01' E 002°10'0 0.0
2016-Nov-24 13:33N 51°01' E 002°10'0 0.0
2016-Nov-24 11:33N 51°01' E 002°10'0 0.0
2016-Nov-24 09:33N 51°01' E 002°10'0 0.0
2016-Nov-24 08:30N 51°01' E 002°10'0 0.0
2016-Nov-24 07:30N 51°01' E 002°10'0 0.0
2016-Nov-24 06:24N 51°01' E 002°10'0 0.0
2016-Nov-24 02:33N 51°01' E 002°10'0 0.0
2016-Nov-24 01:33N 51°01' E 002°10'0 0.0
2016-Nov-24 00:33N 51°01' E 002°10'0 0.0
2016-Nov-23 23:33N 51°01' E 002°11'0 0.0
2016-Nov-23 22:33N 51°01' E 002°10'0 0.0
2016-Nov-23 21:30N 51°01' E 002°10'0 0.0
2016-Nov-23 20:30N 51°01' E 002°10'0 0.0
2016-Nov-23 19:30N 51°01' E 002°10'0 0.0
2016-Nov-23 18:06N 51°01' E 002°10'0 0.0
2016-Nov-23 17:33N 51°01' E 002°10'0 0.0
2016-Nov-23 16:30N 51°01' E 002°10'0 0.0
2016-Nov-23 15:33N 51°01' E 002°10'0 0.0
2016-Nov-23 14:33N 51°01' E 002°10'0 0.0
2016-Nov-23 13:30N 51°01' E 002°10'0 0.0
2016-Nov-23 12:30N 51°01' E 002°10'0 0.0
2016-Nov-23 11:33N 51°01' E 002°10'0 0.0
2016-Nov-23 10:33N 51°01' E 002°10'0 0.0
2016-Nov-23 09:30N 51°01' E 002°10'0 0.0
2016-Nov-23 08:33N 51°01' E 002°10'0 0.0
2016-Nov-23 07:33N 51°01' E 002°10'0 0.0
2016-Nov-23 06:33N 51°01' E 002°10'0 0.0
2016-Nov-23 03:27N 51°01' E 002°10'0 0.0
2016-Nov-23 02:33N 51°01' E 002°10'0 0.0
2016-Nov-23 00:30N 51°01' E 002°10'0 0.0
2016-Nov-22 23:30N 51°01' E 002°10'0 0.0
2016-Nov-22 22:33N 51°01' E 002°10'0 0.0
2016-Nov-22 20:30N 51°01' E 002°10'0 0.0
2016-Nov-22 19:30N 51°01' E 002°10'0 0.0
2016-Nov-22 17:30N 51°01' E 002°10'0 0.0
2016-Nov-22 16:12N 51°01' E 002°10'0 0.0
2016-Nov-22 15:27N 51°01' E 002°10'0 0.0
2016-Nov-22 14:30N 51°01' E 002°10'0 0.0
2016-Nov-22 13:33N 51°01' E 002°10'0 0.0
2016-Nov-22 10:33N 51°01' E 002°10'0 0.0
2016-Nov-22 09:26N 51°01' E 002°10'0 0.0
2016-Nov-22 08:33N 51°01' E 002°11'3 3.1
2016-Nov-22 07:33N 51°03' E 002°08'  
Track history (hours):
 
Tides and Currents Weather Stations Pressure Air Temp Water Temp Dewpoint Dewpoint Depression Visibility Wind Speed Wind Dir Waves Ship Positions

Cape Sakura

Last reported at 2016-Dec-02 07:33 UTC. Time now 2016-Dec-03 21:51 UTC.
Position N 46°09' W 008°21'.

Length 292 m; draft 10.4 m.

Type: Cargo ship. MMSI: 432786000.

Date/timePositionNaut miles runAvg speedWind from/ knotsBaromVisibWave heightAir tempDewpointWater temp
2016-Dec-02 07:33N 46°09' W 008°21'9 9.4
2016-Dec-02 06:33N 46°17' W 008°13'9 9.2
2016-Dec-02 05:32N 46°25' W 008°06'10 9.4
2016-Dec-02 04:30N 46°33' W 007°58'9 9.5
2016-Dec-02 03:33N 46°41' W 007°52'12 9.6
2016-Dec-02 02:17N 46°51' W 007°42'7 9.8
2016-Dec-02 01:33N 46°57' W 007°36'11 9.5
2016-Dec-02 00:21N 47°07' W 007°27'95 9.7
2016-Dec-01 14:33N 48°27' W 006°13'1711.9
2016-Dec-01 13:07N 48°41' W 005°58'712.8
2016-Dec-01 12:33N 48°47' W 005°53'1313.4
2016-Dec-01 11:34N 48°58' W 005°40'4314.3
2016-Dec-01 08:33N 49°22' W 004°45'1313.0
2016-Dec-01 07:33N 49°29' W 004°29'2412.1
2016-Dec-01 05:33N 49°43' W 003°58'1212.1
2016-Dec-01 04:32N 49°48' W 003°41'1313.1
2016-Dec-01 03:34N 49°53' W 003°23'1414.3
2016-Dec-01 02:33N 49°57' W 003°02'1515.3
2016-Dec-01 01:33N 50°02' W 002°39'1515.0
2016-Dec-01 00:33N 50°07' W 002°17'1413.7
2016-Nov-30 23:33N 50°11' W 001°57'1212.0
2016-Nov-30 22:33N 50°13' W 001°38'1110.7
2016-Nov-30 21:33N 50°15' W 001°22'10 9.8
2016-Nov-30 20:33N 50°17' W 001°07'1010.2
2016-Nov-30 19:33N 50°20' W 000°51'1211.6
2016-Nov-30 18:33N 50°23' W 000°34'1313.1
2016-Nov-30 17:33N 50°27' W 000°14'1414.1
2016-Nov-30 16:34N 50°31' E 000°07'1414.4
2016-Nov-30 15:34N 50°35' E 000°29'1413.6
2016-Nov-30 14:33N 50°41' E 000°48'1212.4
2016-Nov-30 13:33N 50°50' E 001°02'1110.8
2016-Nov-30 12:33N 50°57' E 001°14'1111.0
2016-Nov-30 11:33N 51°04' E 001°28'10 9.8
2016-Nov-30 10:33N 51°03' E 001°44'1211.8
2016-Nov-30 09:33N 51°03' E 002°03'1111.5
2016-Nov-30 08:34N 51°03' E 002°21'0 0.5
2016-Nov-30 07:34N 51°03' E 002°20'1 0.6
2016-Nov-30 06:32N 51°03' E 002°19'0 0.0
2016-Nov-30 05:32N 51°03' E 002°19'0 0.0
2016-Nov-30 04:32N 51°03' E 002°19'0 0.0
2016-Nov-30 03:32N 51°03' E 002°19'0 0.0
2016-Nov-30 02:32N 51°03' E 002°19'0 0.0
2016-Nov-30 01:32N 51°03' E 002°19'0 0.0
2016-Nov-30 00:32N 51°03' E 002°19'0 0.0
2016-Nov-29 23:29N 51°03' E 002°19'0 0.0
2016-Nov-29 22:32N 51°03' E 002°19'0 0.0
2016-Nov-29 21:32N 51°03' E 002°19'0 0.0
2016-Nov-29 20:32N 51°03' E 002°19'0 0.0
2016-Nov-29 19:32N 51°03' E 002°19'0 0.0
2016-Nov-29 18:32N 51°03' E 002°19'0 0.0
2016-Nov-29 17:32N 51°03' E 002°19'0 0.0
2016-Nov-29 16:32N 51°03' E 002°19'0 0.0
2016-Nov-29 15:32N 51°03' E 002°19'0 0.0
2016-Nov-29 14:32N 51°03' E 002°19'0 0.0
2016-Nov-29 13:32N 51°03' E 002°19'0 0.0
2016-Nov-29 12:32N 51°03' E 002°19'0 0.0
2016-Nov-29 11:32N 51°03' E 002°19'0 0.0
2016-Nov-29 10:32N 51°03' E 002°19'0 0.0
2016-Nov-29 09:29N 51°03' E 002°19'0 0.0
2016-Nov-29 08:32N 51°03' E 002°19'0 0.0
2016-Nov-29 07:32N 51°03' E 002°19'0 0.0
2016-Nov-29 06:32N 51°03' E 002°19'0 0.0
2016-Nov-29 05:32N 51°03' E 002°19'0 0.0
2016-Nov-29 04:32N 51°03' E 002°19'0 0.0
2016-Nov-29 03:32N 51°03' E 002°19'0 0.0
2016-Nov-29 02:32N 51°03' E 002°19'0 0.0
2016-Nov-29 01:32N 51°03' E 002°19'0 0.0
2016-Nov-29 00:32N 51°03' E 002°19'0 0.0
2016-Nov-28 23:32N 51°03' E 002°19'0 0.0
2016-Nov-28 22:32N 51°03' E 002°19'0 0.0
2016-Nov-28 21:32N 51°03' E 002°19'0 0.0
2016-Nov-28 20:32N 51°03' E 002°19'0 0.0
2016-Nov-28 19:32N 51°03' E 002°19'0 0.0
2016-Nov-28 18:32N 51°03' E 002°19'0 0.0
2016-Nov-28 17:32N 51°03' E 002°19'0 0.0
2016-Nov-28 16:32N 51°03' E 002°19'0 0.0
2016-Nov-28 15:32N 51°03' E 002°19'0 0.0
2016-Nov-28 14:32N 51°03' E 002°19'0 0.0
2016-Nov-28 13:32N 51°03' E 002°19'0 0.0
2016-Nov-28 12:32N 51°03' E 002°19'0 0.0
2016-Nov-28 11:32N 51°03' E 002°19'0 0.0
2016-Nov-28 10:32N 51°03' E 002°19'0 0.0
2016-Nov-28 09:32N 51°03' E 002°19'0 0.0
2016-Nov-28 08:32N 51°03' E 002°19'0 0.0
2016-Nov-28 07:32N 51°03' E 002°19'0 0.0
2016-Nov-28 06:32N 51°03' E 002°19'0 0.0
2016-Nov-28 05:32N 51°03' E 002°19'0 0.0
2016-Nov-28 04:32N 51°03' E 002°19'0 0.0
2016-Nov-28 03:32N 51°03' E 002°19'0 0.0
2016-Nov-28 02:32N 51°03' E 002°19'0 0.0
2016-Nov-28 01:32N 51°03' E 002°19'0 0.0
2016-Nov-28 00:32N 51°03' E 002°19'0 0.0
2016-Nov-27 23:32N 51°03' E 002°19'0 0.0
2016-Nov-27 22:32N 51°03' E 002°19'0 0.0
2016-Nov-27 21:32N 51°03' E 002°19'0 0.0
2016-Nov-27 20:32N 51°03' E 002°19'0 0.0
2016-Nov-27 19:32N 51°03' E 002°19'0 0.0
2016-Nov-27 18:32N 51°03' E 002°19'0 0.0
2016-Nov-27 17:32N 51°03' E 002°19'0 0.0
2016-Nov-27 16:32N 51°03' E 002°19'0 0.0
2016-Nov-27 15:32N 51°03' E 002°19'0 0.0
2016-Nov-27 14:32N 51°03' E 002°19'0 0.0
2016-Nov-27 13:32N 51°03' E 002°19'0 0.0
2016-Nov-27 12:33N 51°03' E 002°19'0 0.0
2016-Nov-27 11:32N 51°03' E 002°19'0 0.0
2016-Nov-27 10:32N 51°03' E 002°19'0 0.0
2016-Nov-27 09:32N 51°03' E 002°19'0 0.0
2016-Nov-27 08:32N 51°03' E 002°19'0 0.0
2016-Nov-27 07:32N 51°03' E 002°19'0 0.0
2016-Nov-27 06:32N 51°03' E 002°19'0 0.0
2016-Nov-27 05:32N 51°03' E 002°19'0 0.0
2016-Nov-27 04:32N 51°03' E 002°19'0 0.0
2016-Nov-27 03:32N 51°03' E 002°19'0 0.0
2016-Nov-27 02:32N 51°03' E 002°19'0 0.0
2016-Nov-27 01:32N 51°03' E 002°19'0 0.0
2016-Nov-27 00:29N 51°03' E 002°19'0 0.0
2016-Nov-26 23:32N 51°03' E 002°19'0 0.0
2016-Nov-26 22:32N 51°03' E 002°19'0 0.0
2016-Nov-26 21:32N 51°03' E 002°19'0 0.0
2016-Nov-26 20:32N 51°03' E 002°19'0 0.0
2016-Nov-26 19:32N 51°03' E 002°19'0 0.0
2016-Nov-26 18:32N 51°03' E 002°19'0 0.0
2016-Nov-26 17:32N 51°03' E 002°19'0 0.0
2016-Nov-26 16:32N 51°03' E 002°19'0 0.0
2016-Nov-26 15:32N 51°03' E 002°19'0 0.0
2016-Nov-26 14:32N 51°03' E 002°19'0 0.0
2016-Nov-26 13:32N 51°03' E 002°19'0 0.0
2016-Nov-26 12:32N 51°03' E 002°19'0 0.0
2016-Nov-26 11:32N 51°03' E 002°19'0 0.0
2016-Nov-26 10:32N 51°03' E 002°19'0 0.0
2016-Nov-26 09:32N 51°03' E 002°19'0 0.0
2016-Nov-26 08:32N 51°03' E 002°19'0 0.0
2016-Nov-26 07:32N 51°03' E 002°19'0 0.0
2016-Nov-26 06:32N 51°03' E 002°19'0 0.0
2016-Nov-26 05:32N 51°03' E 002°19'0 0.0
2016-Nov-26 04:29N 51°03' E 002°19'0 0.0
2016-Nov-26 03:32N 51°03' E 002°19'0 0.0
2016-Nov-26 02:32N 51°03' E 002°19'0 0.0
2016-Nov-26 01:32N 51°03' E 002°19'0 0.0
2016-Nov-26 00:32N 51°03' E 002°19'0 0.0
2016-Nov-25 23:32N 51°03' E 002°19'0 0.0
2016-Nov-25 22:32N 51°03' E 002°19'0 0.0
2016-Nov-25 21:32N 51°03' E 002°19'0 0.0
2016-Nov-25 20:32N 51°03' E 002°19'0 0.0
2016-Nov-25 19:32N 51°03' E 002°19'0 0.0
2016-Nov-25 18:32N 51°03' E 002°19'0 0.0
2016-Nov-25 17:32N 51°03' E 002°19'0 0.0
2016-Nov-25 16:32N 51°03' E 002°19'0 0.0
2016-Nov-25 15:32N 51°03' E 002°19'0 0.0
2016-Nov-25 14:32N 51°03' E 002°19'0 0.0
2016-Nov-25 13:32N 51°03' E 002°19'0 0.0
2016-Nov-25 12:33N 51°03' E 002°19'1 0.8
2016-Nov-25 11:33N 51°03' E 002°21'1 1.3
2016-Nov-25 10:33N 51°04' E 002°19'8 8.3
2016-Nov-25 09:33N 51°03' E 002°06'9 9.3
2016-Nov-25 08:33N 51°02' E 001°51'1 1.2
2016-Nov-25 07:32N 51°03' E 001°49'0 0.1
2016-Nov-25 06:32N 51°03' E 001°49'0 0.0
2016-Nov-25 05:32N 51°03' E 001°49'0 0.0
2016-Nov-25 04:32N 51°03' E 001°49'0 0.0
2016-Nov-25 03:32N 51°03' E 001°49'0 0.0
2016-Nov-25 02:32N 51°03' E 001°49'0 0.0
2016-Nov-25 01:32N 51°03' E 001°49'0 0.0
2016-Nov-25 00:32N 51°03' E 001°49'0 0.0
2016-Nov-24 23:32N 51°03' E 001°49'0 0.0
2016-Nov-24 22:32N 51°03' E 001°49'0 0.1
2016-Nov-24 21:32N 51°03' E 001°49'0 0.0
2016-Nov-24 20:32N 51°03' E 001°49'0 0.1
2016-Nov-24 19:32N 51°03' E 001°49'1 0.9
2016-Nov-24 18:34N 51°02' E 001°48'7 7.3
2016-Nov-24 17:33N 51°03' E 001°59'7 7.3
2016-Nov-24 16:33N 51°01' E 002°11'0 0.1
2016-Nov-24 15:33N 51°01' E 002°10'0 0.0
2016-Nov-24 14:33N 51°01' E 002°10'0 0.0
2016-Nov-24 13:33N 51°01' E 002°10'0 0.0
2016-Nov-24 11:33N 51°01' E 002°10'0 0.0
2016-Nov-24 09:33N 51°01' E 002°10'0 0.0
2016-Nov-24 08:30N 51°01' E 002°10'0 0.0
2016-Nov-24 07:30N 51°01' E 002°10'0 0.0
2016-Nov-24 06:24N 51°01' E 002°10'0 0.0
2016-Nov-24 02:33N 51°01' E 002°10'0 0.0
2016-Nov-24 01:33N 51°01' E 002°10'0 0.0
2016-Nov-24 00:33N 51°01' E 002°10'0 0.0
2016-Nov-23 23:33N 51°01' E 002°11'0 0.0
2016-Nov-23 22:33N 51°01' E 002°10'0 0.0
2016-Nov-23 21:30N 51°01' E 002°10'0 0.0
2016-Nov-23 20:30N 51°01' E 002°10'0 0.0
2016-Nov-23 19:30N 51°01' E 002°10'0 0.0
2016-Nov-23 18:06N 51°01' E 002°10'0 0.0
2016-Nov-23 17:33N 51°01' E 002°10'0 0.0
2016-Nov-23 16:30N 51°01' E 002°10'0 0.0
2016-Nov-23 15:33N 51°01' E 002°10'0 0.0
2016-Nov-23 14:33N 51°01' E 002°10'0 0.0
2016-Nov-23 13:30N 51°01' E 002°10'0 0.0
2016-Nov-23 12:30N 51°01' E 002°10'0 0.0
2016-Nov-23 11:33N 51°01' E 002°10'0 0.0
2016-Nov-23 10:33N 51°01' E 002°10'0 0.0
2016-Nov-23 09:30N 51°01' E 002°10'0 0.0
2016-Nov-23 08:33N 51°01' E 002°10'0 0.0
2016-Nov-23 07:33N 51°01' E 002°10'0 0.0
2016-Nov-23 06:33N 51°01' E 002°10'0 0.0
2016-Nov-23 03:27N 51°01' E 002°10'0 0.0
2016-Nov-23 02:33N 51°01' E 002°10'0 0.0
2016-Nov-23 00:30N 51°01' E 002°10'0 0.0
2016-Nov-22 23:30N 51°01' E 002°10'0 0.0
2016-Nov-22 22:33N 51°01' E 002°10'0 0.0
2016-Nov-22 20:30N 51°01' E 002°10'0 0.0
2016-Nov-22 19:30N 51°01' E 002°10'0 0.0
2016-Nov-22 17:30N 51°01' E 002°10'0 0.0
2016-Nov-22 16:12N 51°01' E 002°10'0 0.0
2016-Nov-22 15:27N 51°01' E 002°10'0 0.0
2016-Nov-22 14:30N 51°01' E 002°10'0 0.0
2016-Nov-22 13:33N 51°01' E 002°10'0 0.0
2016-Nov-22 10:33N 51°01' E 002°10'0 0.0
2016-Nov-22 09:26N 51°01' E 002°10'0 0.0
2016-Nov-22 08:33N 51°01' E 002°11'3 3.1
2016-Nov-22 07:33N 51°03' E 002°08'  

Dump ship's entire track history